Terminal Aerodrome Forecast
Issued by NWS Grand Forks, ND

Home | Current Version | Previous Version | Graphics & Text | Print | Product List | Glossary On
Versions: 1 2 3 4 5 6 7 8 9 10 11 12 13 14 15 16 17 18 19 20
000
FTUS43 KFGF 221732
TAFFAR
TAF
KFAR 221732Z 2218/2318 17013KT P6SM BKN060
     FM230000 VRB06KT P6SM OVC040
      TEMPO 2301/2303 3SM -SN BKN025
     FM230300 VRB06KT 1SM -SN OVC015
     FM230900 VRB04KT 3SM -SN OVC025
     FM231200 33008KT P6SM BKN025=

USA.gov is the U.S. government's official web portal to all federal, state and local government web resources and services.